Terminal Aerodrome Forecast
Issued by NWS

Home | Current Version | Previous Version | Text Only | Print | Product List | Glossary On
Versions: 1 2 3 4 5 6 7 8 9 10 11 12 13 14 15 16 17 18 19 20 21 22 23 24 25 26 27 28 29 30 31
000
FTUS45 KCYS 190520
TAFAIA
TAF
KAIA 190520Z 1906/2006 33010KT P6SM OVC018
     FM190900 35022G30KT P6SM VCSH SCT015 BKN025
     FM191200 35023G32KT P6SM BKN050
     FM192300 35014KT P6SM SCT200
     FM200200 34007KT P6SM SKC=

USA.gov is the U.S. government's official web portal to all federal, state and local government web resources and services.